createdAt,value
2017-10-02T19:56:52.224Z,100738.81
2017-10-02T19:59:21.243Z,100732.58
2017-10-02T20:01:49.645Z,100732.25
2017-10-02T20:04:19.722Z,100736.88
2017-10-02T20:06:48.178Z,100741.35
2017-10-02T20:09:16.510Z,100747.84
2017-10-02T20:11:46.152Z,100750.58
2017-10-02T20:14:14.540Z,100762.23
2017-10-02T20:16:42.894Z,100760.28
2017-10-02T20:19:12.590Z,100748.74
2017-10-02T20:21:41.047Z,100739.73
2017-10-02T20:24:10.091Z,100746.67
2017-10-02T20:26:40.125Z,100743.70
2017-10-02T20:29:08.489Z,100742.34
2017-10-02T20:31:37.765Z,100750.64
2017-10-02T20:34:08.388Z,100738.52
2017-10-02T20:36:37.661Z,100751.56
2017-10-02T20:39:06.522Z,100737.84
2017-10-02T20:41:36.374Z,100735.74
2017-10-02T20:44:04.726Z,100739.09
2017-10-02T20:46:34.217Z,100729.30
2017-10-02T20:49:02.564Z,100723.27
2017-10-02T20:51:30.908Z,100715.89
2017-10-02T20:53:59.275Z,100714.98
2017-10-02T20:56:27.638Z,100714.84
2017-10-02T20:58:56.027Z,100709.53
2017-10-02T21:01:25.321Z,100699.34
2017-10-02T21:03:53.868Z,100713.47
2017-10-02T21:06:22.243Z,100700.75
2017-10-02T21:08:52.218Z,100704.38
2017-10-02T21:11:20.590Z,100711.64
2017-10-02T21:13:50.076Z,100725.48
2017-10-02T21:16:18.418Z,100717.29
2017-10-02T21:18:47.044Z,100725.52
2017-10-02T21:21:15.570Z,100715.64
2017-10-02T21:23:43.934Z,100711.92
2017-10-02T21:26:12.795Z,100727.81
2017-10-02T21:28:41.919Z,100720.84
2017-10-02T21:31:10.645Z,100705.67
2017-10-02T21:33:39.083Z,100702.23
2017-10-02T21:36:07.497Z,100709.56
2017-10-02T21:38:36.628Z,100718.43
2017-10-02T21:41:06.349Z,100719.71
2017-10-02T21:43:34.717Z,100708.93
2017-10-02T21:46:03.789Z,100709.30
2017-10-02T21:48:32.531Z,100703.28
2017-10-02T21:51:01.208Z,100716.55
2017-10-02T21:53:29.580Z,100724.77
2017-10-02T21:55:58.774Z,100726.95
2017-10-02T21:58:27.108Z,100715.51
2017-10-02T22:00:56.985Z,100721.45
2017-10-02T22:03:25.369Z,100712.03
2017-10-02T22:05:53.754Z,100717.94
2017-10-02T22:08:22.126Z,100717.65
2017-10-02T22:10:51.505Z,100716.19
2017-10-02T22:13:20.866Z,100728.67
2017-10-02T22:15:49.220Z,100723.17
2017-10-02T22:18:17.913Z,100708.96
2017-10-02T22:20:46.290Z,100711.87
2017-10-02T22:23:14.682Z,100713.76
2017-10-02T22:25:43.047Z,100703.30
2017-10-02T22:28:11.669Z,100709.23
2017-10-02T22:30:41.102Z,100705.97
2017-10-02T22:33:09.574Z,100697.97
2017-10-02T22:35:38.831Z,100704.80
2017-10-02T22:38:07.188Z,100698.44
2017-10-02T22:40:35.568Z,100698.06
2017-10-02T22:43:04.593Z,100710.34
2017-10-02T22:45:32.934Z,100722.09
2017-10-02T22:48:01.313Z,100723.02
2017-10-02T22:50:29.744Z,100717.90
2017-10-02T22:52:58.082Z,100708.11
2017-10-02T22:55:27.712Z,100697.16
2017-10-02T22:57:56.085Z,100695.61
2017-10-02T23:00:25.778Z,100698.65
2017-10-02T23:02:54.149Z,100698.80
2017-10-02T23:05:23.269Z,100704.70
2017-10-02T23:07:51.657Z,100706.93
2017-10-02T23:10:20.007Z,100693.35
2017-10-02T23:12:48.898Z,100693.92
2017-10-02T23:15:17.244Z,100690.84
2017-10-02T23:17:47.073Z,100686.86
2017-10-02T23:20:15.422Z,100696.61
2017-10-02T23:22:44.983Z,100704.91
2017-10-02T23:25:13.337Z,100701.60
2017-10-02T23:27:41.714Z,100697.80
2017-10-02T23:30:10.542Z,100700.53
2017-10-02T23:32:39.228Z,100688.77
2017-10-02T23:35:07.606Z,100692.56
2017-10-02T23:37:35.961Z,100691.84
2017-10-02T23:40:05.355Z,100688.70
2017-10-02T23:42:34.621Z,100700.47
2017-10-02T23:45:03.724Z,100706.45
2017-10-02T23:47:33.490Z,100706.19
2017-10-02T23:50:01.828Z,100698.25
2017-10-02T23:52:30.183Z,100694.48
2017-10-02T23:54:58.587Z,100689.13
2017-10-02T23:57:26.942Z,100687.84
2017-10-02T23:59:55.287Z,100676.61
